sensor_id;sensor_type;location;lat;lon;timestamp;pressure;altitude;pressure_sealevel;temperature;humidity
58785;BME280;44557;51.862;19.378;2023-03-01T00:00:39;100570.40;;;-0.95;75.18
58785;BME280;44557;51.862;19.378;2023-03-01T00:02:55;100574.23;;;-1.01;75.39
58785;BME280;44557;51.862;19.378;2023-03-01T00:04:56;100573.27;;;-1.17;75.83
58785;BME280;44557;51.862;19.378;2023-03-01T00:06:57;100574.50;;;-1.28;76.24
58785;BME280;44557;51.862;19.378;2023-03-01T00:08:58;100577.98;;;-1.14;76.06
58785;BME280;44557;51.862;19.378;2023-03-01T00:11:23;100583.21;;;-1.27;76.54
58785;BME280;44557;51.862;19.378;2023-03-01T00:13:25;100583.20;;;-1.41;77.09
58785;BME280;44557;51.862;19.378;2023-03-01T00:15:25;100588.83;;;-1.44;77.31
58785;BME280;44557;51.862;19.378;2023-03-01T00:17:27;100586.39;;;-1.46;77.60
58785;BME280;44557;51.862;19.378;2023-03-01T00:19:29;100588.85;;;-1.45;77.63
58785;BME280;44557;51.862;19.378;2023-03-01T00:21:30;100586.83;;;-1.46;77.79
58785;BME280;44557;51.862;19.378;2023-03-01T00:23:33;100583.36;;;-1.39;77.30
58785;BME280;44557;51.862;19.378;2023-03-01T00:25:41;100582.48;;;-1.46;77.70
58785;BME280;44557;51.862;19.378;2023-03-01T00:27:42;100579.33;;;-1.45;77.79
58785;BME280;44557;51.862;19.378;2023-03-01T00:29:43;100582.27;;;-1.47;77.68
58785;BME280;44557;51.862;19.378;2023-03-01T00:31:44;100578.25;;;-1.51;77.99
58785;BME280;44557;51.862;19.378;2023-03-01T00:33:45;100574.90;;;-1.45;77.74
58785;BME280;44557;51.862;19.378;2023-03-01T00:35:46;100572.63;;;-1.24;76.69
58785;BME280;44557;51.862;19.378;2023-03-01T00:37:47;100565.41;;;-1.21;76.60
58785;BME280;44557;51.862;19.378;2023-03-01T00:39:48;100562.89;;;-1.14;75.99
58785;BME280;44557;51.862;19.378;2023-03-01T00:41:49;100562.16;;;-1.17;75.92
58785;BME280;44557;51.862;19.378;2023-03-01T00:43:51;100558.02;;;-0.95;75.25
58785;BME280;44557;51.862;19.378;2023-03-01T00:45:52;100556.69;;;-1.21;76.27
58785;BME280;44557;51.862;19.378;2023-03-01T00:47:53;100556.67;;;-1.30;76.52
58785;BME280;44557;51.862;19.378;2023-03-01T00:49:54;100553.48;;;-1.43;77.14
58785;BME280;44557;51.862;19.378;2023-03-01T00:51:55;100552.48;;;-1.07;76.06
58785;BME280;44557;51.862;19.378;2023-03-01T00:53:59;100555.96;;;-1.11;75.36
58785;BME280;44557;51.862;19.378;2023-03-01T00:56:02;100558.88;;;-1.08;75.67
58785;BME280;44557;51.862;19.378;2023-03-01T00:58:04;100564.83;;;-0.92;74.60
58785;BME280;44557;51.862;19.378;2023-03-01T01:00:06;100568.02;;;-1.20;75.41
58785;BME280;44557;51.862;19.378;2023-03-01T01:02:07;100565.80;;;-1.25;75.88
58785;BME280;44557;51.862;19.378;2023-03-01T01:04:11;100564.98;;;-1.25;75.69
58785;BME280;44557;51.862;19.378;2023-03-01T01:06:14;100561.23;;;-1.18;75.56
58785;BME280;44557;51.862;19.378;2023-03-01T01:08:15;100562.13;;;-1.00;74.94
58785;BME280;44557;51.862;19.378;2023-03-01T01:10:16;100565.35;;;-1.28;75.92
58785;BME280;44557;51.862;19.378;2023-03-01T01:12:17;100572.09;;;-1.40;76.59
58785;BME280;44557;51.862;19.378;2023-03-01T01:14:18;100570.76;;;-1.44;76.74
58785;BME280;44557;51.862;19.378;2023-03-01T01:16:22;100566.27;;;-1.37;76.46
58785;BME280;44557;51.862;19.378;2023-03-01T01:18:23;100563.33;;;-1.16;75.73
58785;BME280;44557;51.862;19.378;2023-03-01T01:20:24;100561.58;;;-1.17;75.44
58785;BME280;44557;51.862;19.378;2023-03-01T01:22:25;100559.48;;;-1.36;76.30
58785;BME280;44557;51.862;19.378;2023-03-01T01:24:26;100555.55;;;-1.40;76.44
58785;BME280;44557;51.862;19.378;2023-03-01T01:26:30;100559.52;;;-1.37;76.35
58785;BME280;44557;51.862;19.378;2023-03-01T01:28:32;100559.52;;;-1.39;76.29
58785;BME280;44557;51.862;19.378;2023-03-01T01:30:32;100557.20;;;-1.42;76.51
58785;BME280;44557;51.862;19.378;2023-03-01T01:32:33;100556.20;;;-1.43;76.50
58785;BME280;44557;51.862;19.378;2023-03-01T01:34:34;100555.36;;;-1.47;76.62
58785;BME280;44557;51.862;19.378;2023-03-01T01:36:35;100551.48;;;-1.57;77.08
58785;BME280;44557;51.862;19.378;2023-03-01T01:38:37;100547.11;;;-1.56;77.04
58785;BME280;44557;51.862;19.378;2023-03-01T01:40:46;100545.33;;;-1.63;77.29
58785;BME280;44557;51.862;19.378;2023-03-01T01:42:47;100534.71;;;-1.58;77.25
58785;BME280;44557;51.862;19.378;2023-03-01T01:44:48;100529.80;;;-1.39;76.63
58785;BME280;44557;51.862;19.378;2023-03-01T01:47:27;100528.95;;;-1.51;76.83
58785;BME280;44557;51.862;19.378;2023-03-01T01:49:32;100529.48;;;-1.61;76.97
58785;BME280;44557;51.862;19.378;2023-03-01T01:51:40;100524.05;;;-1.53;76.72
58785;BME280;44557;51.862;19.378;2023-03-01T01:53:45;100525.79;;;-1.55;76.51
58785;BME280;44557;51.862;19.378;2023-03-01T01:55:50;100527.69;;;-1.54;76.48
58785;BME280;44557;51.862;19.378;2023-03-01T01:58:01;100526.75;;;-1.63;76.68
58785;BME280;44557;51.862;19.378;2023-03-01T02:00:25;100518.52;;;-1.70;76.99
58785;BME280;44557;51.862;19.378;2023-03-01T02:02:26;100515.45;;;-1.68;77.26
58785;BME280;44557;51.862;19.378;2023-03-01T02:04:28;100515.64;;;-1.62;76.88
58785;BME280;44557;51.862;19.378;2023-03-01T02:06:39;100504.84;;;-1.18;75.23
58785;BME280;44557;51.862;19.378;2023-03-01T02:08:44;100500.37;;;-1.59;76.21
58785;BME280;44557;51.862;19.378;2023-03-01T02:10:48;100493.34;;;-1.59;76.50
58785;BME280;44557;51.862;19.378;2023-03-01T02:12:50;100487.55;;;-1.44;75.98
58785;BME280;44557;51.862;19.378;2023-03-01T02:14:52;100480.85;;;-1.54;76.18
58785;BME280;44557;51.862;19.378;2023-03-01T02:16:53;100481.95;;;-1.72;76.95
58785;BME280;44557;51.862;19.378;2023-03-01T02:18:54;100478.18;;;-1.77;77.09
58785;BME280;44557;51.862;19.378;2023-03-01T02:23:29;100478.05;;;-1.70;76.74
58785;BME280;44557;51.862;19.378;2023-03-01T02:25:51;100476.14;;;-1.29;75.25
58785;BME280;44557;51.862;19.378;2023-03-01T02:28:30;100471.00;;;-1.52;75.58
58785;BME280;44557;51.862;19.378;2023-03-01T02:30:32;100467.34;;;-1.26;75.03
58785;BME280;44557;51.862;19.378;2023-03-01T02:32:34;100464.98;;;-1.07;74.10
58785;BME280;44557;51.862;19.378;2023-03-01T02:34:37;100465.03;;;-1.07;74.21
58785;BME280;44557;51.862;19.378;2023-03-01T02:36:53;100461.46;;;-1.04;73.64
58785;BME280;44557;51.862;19.378;2023-03-01T02:38:58;100467.74;;;-0.89;73.06
58785;BME280;44557;51.862;19.378;2023-03-01T02:41:02;100475.38;;;-1.12;73.95
58785;BME280;44557;51.862;19.378;2023-03-01T02:43:06;100476.98;;;-1.11;73.96
58785;BME280;44557;51.862;19.378;2023-03-01T02:45:10;100475.23;;;-1.08;73.73
58785;BME280;44557;51.862;19.378;2023-03-01T02:47:11;100474.64;;;-0.87;73.36
58785;BME280;44557;51.862;19.378;2023-03-01T02:49:30;100473.08;;;-0.93;73.45
58785;BME280;44557;51.862;19.378;2023-03-01T02:53:56;100469.80;;;-1.07;73.73
58785;BME280;44557;51.862;19.378;2023-03-01T02:56:01;100472.39;;;-1.17;74.35
58785;BME280;44557;51.862;19.378;2023-03-01T02:58:03;100468.79;;;-0.94;73.73
58785;BME280;44557;51.862;19.378;2023-03-01T03:00:07;100467.83;;;-1.20;74.23
58785;BME280;44557;51.862;19.378;2023-03-01T03:02:25;100466.11;;;-1.17;74.33
58785;BME280;44557;51.862;19.378;2023-03-01T03:04:40;100464.09;;;-0.94;73.54
58785;BME280;44557;51.862;19.378;2023-03-01T03:06:41;100463.90;;;-1.01;73.38
58785;BME280;44557;51.862;19.378;2023-03-01T03:08:43;100464.58;;;-0.97;73.46
58785;BME280;44557;51.862;19.378;2023-03-01T03:10:44;100464.98;;;-1.11;73.85
58785;BME280;44557;51.862;19.378;2023-03-01T03:12:51;100459.67;;;-0.92;73.63
58785;BME280;44557;51.862;19.378;2023-03-01T03:14:53;100460.67;;;-0.65;72.27
58785;BME280;44557;51.862;19.378;2023-03-01T03:16:54;100460.39;;;-0.70;72.31
58785;BME280;44557;51.862;19.378;2023-03-01T03:18:55;100460.13;;;-0.65;72.13
58785;BME280;44557;51.862;19.378;2023-03-01T03:21:09;100465.38;;;-0.65;72.14
58785;BME280;44557;51.862;19.378;2023-03-01T03:23:11;100463.78;;;-1.04;73.15
58785;BME280;44557;51.862;19.378;2023-03-01T03:25:12;100463.93;;;-0.99;73.45
58785;BME280;44557;51.862;19.378;2023-03-01T03:27:13;100464.80;;;-0.90;73.08
58785;BME280;44557;51.862;19.378;2023-03-01T03:29:14;100471.34;;;-1.21;73.91
58785;BME280;44557;51.862;19.378;2023-03-01T03:31:16;100470.22;;;-1.25;74.61
58785;BME280;44557;51.862;19.378;2023-03-01T03:33:17;100474.11;;;-1.31;74.75
58785;BME280;44557;51.862;19.378;2023-03-01T03:35:24;100479.14;;;-1.48;75.47
58785;BME280;44557;51.862;19.378;2023-03-01T03:37:25;100474.12;;;-1.19;74.76
58785;BME280;44557;51.862;19.378;2023-03-01T03:39:45;100469.21;;;-1.35;74.90
58785;BME280;44557;51.862;19.378;2023-03-01T03:41:46;100467.88;;;-1.02;74.37
58785;BME280;44557;51.862;19.378;2023-03-01T03:43:47;100466.98;;;-0.88;73.39
58785;BME280;44557;51.862;19.378;2023-03-01T03:45:50;100461.38;;;-1.03;73.38
58785;BME280;44557;51.862;19.378;2023-03-01T03:47:52;100462.11;;;-1.45;75.26
58785;BME280;44557;51.862;19.378;2023-03-01T03:49:52;100460.21;;;-1.29;74.90
58785;BME280;44557;51.862;19.378;2023-03-01T03:51:54;100460.95;;;-1.47;75.37
58785;BME280;44557;51.862;19.378;2023-03-01T03:53:55;100460.23;;;-1.48;75.59
58785;BME280;44557;51.862;19.378;2023-03-01T03:55:55;100461.45;;;-1.38;75.36
58785;BME280;44557;51.862;19.378;2023-03-01T03:57:58;100463.97;;;-1.37;75.30
58785;BME280;44557;51.862;19.378;2023-03-01T04:00:04;100458.22;;;-1.40;75.19
58785;BME280;44557;51.862;19.378;2023-03-01T04:02:06;100455.52;;;-1.75;76.34
58785;BME280;44557;51.862;19.378;2023-03-01T04:04:09;100458.23;;;-1.67;76.48
58785;BME280;44557;51.862;19.378;2023-03-01T04:06:10;100457.46;;;-1.68;76.41
58785;BME280;44557;51.862;19.378;2023-03-01T04:08:11;100462.24;;;-1.55;75.95
58785;BME280;44557;51.862;19.378;2023-03-01T04:10:15;100463.52;;;-1.66;76.06
58785;BME280;44557;51.862;19.378;2023-03-01T04:12:17;100459.61;;;-1.84;76.64
58785;BME280;44557;51.862;19.378;2023-03-01T04:14:23;100461.46;;;-2.01;77.47
58785;BME280;44557;51.862;19.378;2023-03-01T04:16:24;100467.02;;;-2.05;77.75
58785;BME280;44557;51.862;19.378;2023-03-01T04:18:25;100467.89;;;-2.03;77.72
58785;BME280;44557;51.862;19.378;2023-03-01T04:20:30;100467.38;;;-1.87;76.91
58785;BME280;44557;51.862;19.378;2023-03-01T04:22:31;100466.21;;;-2.04;77.35
58785;BME280;44557;51.862;19.378;2023-03-01T04:24:33;100465.23;;;-2.14;78.10
58785;BME280;44557;51.862;19.378;2023-03-01T04:26:34;100467.45;;;-1.88;77.43
58785;BME280;44557;51.862;19.378;2023-03-01T04:28:40;100463.59;;;-1.87;77.09
58785;BME280;44557;51.862;19.378;2023-03-01T04:30:43;100463.38;;;-2.11;77.91
58785;BME280;44557;51.862;19.378;2023-03-01T04:32:44;100463.35;;;-2.19;78.33
58785;BME280;44557;51.862;19.378;2023-03-01T04:34:45;100459.42;;;-2.25;78.25
58785;BME280;44557;51.862;19.378;2023-03-01T04:36:46;100451.29;;;-2.25;78.46
58785;BME280;44557;51.862;19.378;2023-03-01T04:38:47;100450.50;;;-2.43;78.87
58785;BME280;44557;51.862;19.378;2023-03-01T04:40:48;100448.02;;;-2.30;78.84
58785;BME280;44557;51.862;19.378;2023-03-01T04:42:49;100442.60;;;-2.07;77.65
58785;BME280;44557;51.862;19.378;2023-03-01T04:44:50;100453.70;;;-2.23;78.19
58785;BME280;44557;51.862;19.378;2023-03-01T04:46:52;100452.13;;;-2.32;78.63
58785;BME280;44557;51.862;19.378;2023-03-01T04:48:53;100450.41;;;-2.44;79.18
58785;BME280;44557;51.862;19.378;2023-03-01T04:50:54;100449.08;;;-2.46;79.49
58785;BME280;44557;51.862;19.378;2023-03-01T04:52:55;100445.33;;;-2.57;80.10
58785;BME280;44557;51.862;19.378;2023-03-01T04:54:59;100438.33;;;-2.39;79.52
58785;BME280;44557;51.862;19.378;2023-03-01T04:57:01;100442.67;;;-2.38;79.24
58785;BME280;44557;51.862;19.378;2023-03-01T04:59:03;100446.87;;;-2.34;79.39
58785;BME280;44557;51.862;19.378;2023-03-01T05:01:18;100451.13;;;-2.48;79.98
58785;BME280;44557;51.862;19.378;2023-03-01T05:03:21;100448.45;;;-2.52;80.21
58785;BME280;44557;51.862;19.378;2023-03-01T05:05:28;100445.55;;;-2.47;79.94
58785;BME280;44557;51.862;19.378;2023-03-01T05:07:29;100441.77;;;-2.24;79.22
58785;BME280;44557;51.862;19.378;2023-03-01T05:09:30;100442.41;;;-2.31;79.26
58785;BME280;44557;51.862;19.378;2023-03-01T05:11:31;100439.86;;;-2.48;80.37
58785;BME280;44557;51.862;19.378;2023-03-01T05:13:37;100441.05;;;-2.24;79.72
58785;BME280;44557;51.862;19.378;2023-03-01T05:15:39;100439.78;;;-2.35;79.82
58785;BME280;44557;51.862;19.378;2023-03-01T05:17:40;100442.82;;;-2.53;80.53
58785;BME280;44557;51.862;19.378;2023-03-01T05:19:41;100442.05;;;-2.52;81.11
58785;BME280;44557;51.862;19.378;2023-03-01T05:21:49;100443.83;;;-2.35;80.19
58785;BME280;44557;51.862;19.378;2023-03-01T05:24:06;100445.85;;;-2.73;81.89
58785;BME280;44557;51.862;19.378;2023-03-01T05:26:11;100447.68;;;-2.73;82.22
58785;BME280;44557;51.862;19.378;2023-03-01T05:28:13;100440.84;;;-2.50;81.51
58785;BME280;44557;51.862;19.378;2023-03-01T05:30:15;100438.19;;;-2.57;81.48
58785;BME280;44557;51.862;19.378;2023-03-01T05:32:18;100436.30;;;-2.60;81.23
58785;BME280;44557;51.862;19.378;2023-03-01T05:34:23;100433.80;;;-2.44;80.94
58785;BME280;44557;51.862;19.378;2023-03-01T05:36:24;100433.39;;;-2.33;80.22
58785;BME280;44557;51.862;19.378;2023-03-01T05:38:26;100436.34;;;-2.44;80.40
58785;BME280;44557;51.862;19.378;2023-03-01T05:40:27;100440.94;;;-2.48;80.77
58785;BME280;44557;51.862;19.378;2023-03-01T05:42:27;100437.75;;;-2.41;80.58
58785;BME280;44557;51.862;19.378;2023-03-01T05:44:28;100429.36;;;-2.37;80.46
58785;BME280;44557;51.862;19.378;2023-03-01T05:46:29;100431.80;;;-2.35;80.30
58785;BME280;44557;51.862;19.378;2023-03-01T05:48:30;100430.90;;;-2.24;80.12
58785;BME280;44557;51.862;19.378;2023-03-01T05:50:37;100429.32;;;-2.10;79.46
58785;BME280;44557;51.862;19.378;2023-03-01T05:52:40;100421.03;;;-1.84;78.50
58785;BME280;44557;51.862;19.378;2023-03-01T05:54:41;100416.86;;;-1.91;78.39
58785;BME280;44557;51.862;19.378;2023-03-01T05:56:41;100412.99;;;-1.85;78.30
58785;BME280;44557;51.862;19.378;2023-03-01T05:58:42;100411.66;;;-1.67;77.82
58785;BME280;44557;51.862;19.378;2023-03-01T06:00:44;100412.06;;;-1.32;76.30
58785;BME280;44557;51.862;19.378;2023-03-01T06:02:46;100408.61;;;-1.08;75.39
58785;BME280;44557;51.862;19.378;2023-03-01T06:04:46;100405.43;;;-0.68;73.94
58785;BME280;44557;51.862;19.378;2023-03-01T06:06:47;100409.42;;;-0.36;72.71
58785;BME280;44557;51.862;19.378;2023-03-01T06:08:48;100408.81;;;-0.13;71.72
58785;BME280;44557;51.862;19.378;2023-03-01T06:10:49;100402.86;;;0.37;69.77
58785;BME280;44557;51.862;19.378;2023-03-01T06:12:50;100401.65;;;0.55;69.33
58785;BME280;44557;51.862;19.378;2023-03-01T06:14:51;100401.34;;;1.16;67.10
58785;BME280;44557;51.862;19.378;2023-03-01T06:16:51;100398.32;;;1.66;65.05
58785;BME280;44557;51.862;19.378;2023-03-01T06:18:52;100393.86;;;1.84;64.51
58785;BME280;44557;51.862;19.378;2023-03-01T06:20:54;100396.35;;;2.24;63.00
58785;BME280;44557;51.862;19.378;2023-03-01T06:22:56;100403.08;;;2.32;62.12
58785;BME280;44557;51.862;19.378;2023-03-01T06:24:57;100402.95;;;2.70;61.13
58785;BME280;44557;51.862;19.378;2023-03-01T06:26:58;100409.83;;;2.70;60.68
58785;BME280;44557;51.862;19.378;2023-03-01T06:28:58;100413.79;;;2.48;61.24
58785;BME280;44557;51.862;19.378;2023-03-01T06:31:00;100424.13;;;2.70;60.87
58785;BME280;44557;51.862;19.378;2023-03-01T06:33:01;100434.48;;;2.75;60.51
58785;BME280;44557;51.862;19.378;2023-03-01T06:35:04;100440.90;;;3.26;59.38
58785;BME280;44557;51.862;19.378;2023-03-01T06:37:07;100449.39;;;3.58;58.30
58785;BME280;44557;51.862;19.378;2023-03-01T06:39:08;100456.37;;;4.10;56.74
58785;BME280;44557;51.862;19.378;2023-03-01T06:41:09;100451.42;;;4.25;56.02
58785;BME280;44557;51.862;19.378;2023-03-01T06:43:10;100451.54;;;4.57;55.30
58785;BME280;44557;51.862;19.378;2023-03-01T06:45:11;100447.48;;;4.90;54.25
58785;BME280;44557;51.862;19.378;2023-03-01T06:47:12;100444.38;;;4.73;54.37
58785;BME280;44557;51.862;19.378;2023-03-01T06:49:13;100445.08;;;4.31;55.16
58785;BME280;44557;51.862;19.378;2023-03-01T06:51:16;100448.43;;;4.02;56.00
58785;BME280;44557;51.862;19.378;2023-03-01T06:53:17;100441.28;;;3.85;56.56
58785;BME280;44557;51.862;19.378;2023-03-01T06:55:18;100436.41;;;4.28;55.69
58785;BME280;44557;51.862;19.378;2023-03-01T06:57:19;100439.11;;;5.24;53.39
58785;BME280;44557;51.862;19.378;2023-03-01T06:59:20;100438.86;;;5.27;53.22
58785;BME280;44557;51.862;19.378;2023-03-01T07:01:21;100435.73;;;5.09;53.09
58785;BME280;44557;51.862;19.378;2023-03-01T07:03:23;100425.98;;;4.72;54.00
58785;BME280;44557;51.862;19.378;2023-03-01T07:05:24;100428.80;;;4.82;54.11
58785;BME280;44557;51.862;19.378;2023-03-01T07:07:25;100427.42;;;5.02;53.28
58785;BME280;44557;51.862;19.378;2023-03-01T07:09:26;100426.85;;;5.40;52.45
58785;BME280;44557;51.862;19.378;2023-03-01T07:11:27;100435.05;;;5.71;52.24
58785;BME280;44557;51.862;19.378;2023-03-01T07:13:28;100435.85;;;5.85;51.59
58785;BME280;44557;51.862;19.378;2023-03-01T07:15:29;100433.91;;;6.08;50.81
58785;BME280;44557;51.862;19.378;2023-03-01T07:17:30;100431.92;;;6.29;50.45
58785;BME280;44557;51.862;19.378;2023-03-01T07:19:31;100428.61;;;6.40;50.20
58785;BME280;44557;51.862;19.378;2023-03-01T07:21:32;100427.48;;;6.25;50.35
58785;BME280;44557;51.862;19.378;2023-03-01T07:23:34;100425.62;;;6.43;49.69
58785;BME280;44557;51.862;19.378;2023-03-01T07:25:35;100424.40;;;7.09;48.66
58785;BME280;44557;51.862;19.378;2023-03-01T07:27:36;100427.52;;;7.28;48.05
58785;BME280;44557;51.862;19.378;2023-03-01T07:29:37;100420.40;;;7.50;47.01
58785;BME280;44557;51.862;19.378;2023-03-01T07:31:38;100417.85;;;7.85;46.44
58785;BME280;44557;51.862;19.378;2023-03-01T07:33:39;100420.90;;;7.95;46.06
58785;BME280;44557;51.862;19.378;2023-03-01T07:35:43;100424.03;;;7.89;45.97
58785;BME280;44557;51.862;19.378;2023-03-01T07:37:44;100424.37;;;8.11;45.83
58785;BME280;44557;51.862;19.378;2023-03-01T07:39:45;100423.27;;;8.32;44.79
58785;BME280;44557;51.862;19.378;2023-03-01T07:41:46;100429.68;;;8.69;43.92
58785;BME280;44557;51.862;19.378;2023-03-01T07:43:47;100421.88;;;9.26;43.42
58785;BME280;44557;51.862;19.378;2023-03-01T07:45:48;100415.68;;;9.36;43.15
58785;BME280;44557;51.862;19.378;2023-03-01T07:47:50;100417.96;;;9.53;43.05
58785;BME280;44557;51.862;19.378;2023-03-01T07:49:51;100415.25;;;9.91;42.20
58785;BME280;44557;51.862;19.378;2023-03-01T07:51:53;100408.60;;;10.39;41.21
58785;BME280;44557;51.862;19.378;2023-03-01T07:53:54;100407.59;;;11.12;40.64
58785;BME280;44557;51.862;19.378;2023-03-01T07:56:05;100407.73;;;10.67;40.37
58785;BME280;44557;51.862;19.378;2023-03-01T07:58:06;100413.75;;;10.17;41.05
58785;BME280;44557;51.862;19.378;2023-03-01T08:00:11;100411.66;;;9.95;41.42
58785;BME280;44557;51.862;19.378;2023-03-01T08:02:12;100414.02;;;9.67;41.88
58785;BME280;44557;51.862;19.378;2023-03-01T08:04:13;100413.07;;;10.36;41.48
58785;BME280;44557;51.862;19.378;2023-03-01T08:06:16;100409.84;;;10.80;40.78
58785;BME280;44557;51.862;19.378;2023-03-01T08:08:17;100409.39;;;11.65;39.57
58785;BME280;44557;51.862;19.378;2023-03-01T08:10:18;100409.81;;;11.07;40.27
58785;BME280;44557;51.862;19.378;2023-03-01T08:12:19;100410.30;;;11.23;39.57
58785;BME280;44557;51.862;19.378;2023-03-01T08:14:20;100410.20;;;11.22;39.70
58785;BME280;44557;51.862;19.378;2023-03-01T08:16:21;100413.60;;;10.61;40.86
58785;BME280;44557;51.862;19.378;2023-03-01T08:18:22;100412.23;;;10.90;41.15
58785;BME280;44557;51.862;19.378;2023-03-01T08:20:23;100412.46;;;11.03;40.40
58785;BME280;44557;51.862;19.378;2023-03-01T08:22:24;100413.22;;;10.38;41.36
58785;BME280;44557;51.862;19.378;2023-03-01T08:24:25;100409.15;;;10.15;42.46
58785;BME280;44557;51.862;19.378;2023-03-01T08:26:26;100408.14;;;10.60;41.41
58785;BME280;44557;51.862;19.378;2023-03-01T08:28:27;100406.79;;;10.11;41.64
58785;BME280;44557;51.862;19.378;2023-03-01T08:30:28;100408.01;;;10.47;41.25
58785;BME280;44557;51.862;19.378;2023-03-01T08:32:29;100403.55;;;11.18;40.68
58785;BME280;44557;51.862;19.378;2023-03-01T08:34:30;100407.37;;;11.24;40.07
58785;BME280;44557;51.862;19.378;2023-03-01T08:36:36;100408.90;;;10.96;40.19
58785;BME280;44557;51.862;19.378;2023-03-01T08:38:38;100409.52;;;10.63;41.01
58785;BME280;44557;51.862;19.378;2023-03-01T08:40:39;100402.98;;;11.18;40.07
58785;BME280;44557;51.862;19.378;2023-03-01T08:42:41;100409.06;;;11.04;40.23
58785;BME280;44557;51.862;19.378;2023-03-01T08:44:43;100402.20;;;11.78;40.05
58785;BME280;44557;51.862;19.378;2023-03-01T08:46:44;100394.47;;;12.08;39.03
58785;BME280;44557;51.862;19.378;2023-03-01T08:48:46;100396.45;;;11.71;38.56
58785;BME280;44557;51.862;19.378;2023-03-01T08:50:47;100387.05;;;11.86;38.51
58785;BME280;44557;51.862;19.378;2023-03-01T08:52:48;100387.16;;;11.17;38.70
58785;BME280;44557;51.862;19.378;2023-03-01T08:54:49;100385.23;;;11.42;39.58
58785;BME280;44557;51.862;19.378;2023-03-01T08:56:50;100382.64;;;11.74;39.23
58785;BME280;44557;51.862;19.378;2023-03-01T08:58:51;100378.17;;;12.44;38.40
58785;BME280;44557;51.862;19.378;2023-03-01T09:00:52;100371.31;;;11.82;38.46
58785;BME280;44557;51.862;19.378;2023-03-01T09:02:53;100359.96;;;12.14;38.09
58785;BME280;44557;51.862;19.378;2023-03-01T09:04:54;100362.11;;;11.96;37.20
58785;BME280;44557;51.862;19.378;2023-03-01T09:06:55;100364.42;;;11.87;37.86
58785;BME280;44557;51.862;19.378;2023-03-01T09:08:56;100370.80;;;12.00;38.10
58785;BME280;44557;51.862;19.378;2023-03-01T09:10:57;100375.14;;;11.91;38.46
58785;BME280;44557;51.862;19.378;2023-03-01T09:12:58;100374.02;;;11.98;38.12
58785;BME280;44557;51.862;19.378;2023-03-01T09:14:59;100376.13;;;12.13;37.81
58785;BME280;44557;51.862;19.378;2023-03-01T09:17:00;100375.06;;;12.32;37.27
58785;BME280;44557;51.862;19.378;2023-03-01T09:19:04;100369.70;;;12.45;37.44
58785;BME280;44557;51.862;19.378;2023-03-01T09:21:11;100371.14;;;12.48;37.43
58785;BME280;44557;51.862;19.378;2023-03-01T09:23:12;100370.17;;;12.07;37.39
58785;BME280;44557;51.862;19.378;2023-03-01T09:25:13;100375.54;;;12.42;37.18
58785;BME280;44557;51.862;19.378;2023-03-01T09:27:14;100379.11;;;12.52;37.04
58785;BME280;44557;51.862;19.378;2023-03-01T09:29:19;100378.23;;;11.96;37.67
58785;BME280;44557;51.862;19.378;2023-03-01T09:31:21;100381.38;;;11.63;37.58
58785;BME280;44557;51.862;19.378;2023-03-01T09:33:22;100382.92;;;11.80;37.59
58785;BME280;44557;51.862;19.378;2023-03-01T09:35:23;100384.73;;;11.61;37.57
58785;BME280;44557;51.862;19.378;2023-03-01T09:37:26;100383.99;;;11.67;37.55
58785;BME280;44557;51.862;19.378;2023-03-01T09:39:27;100384.59;;;11.99;37.44
58785;BME280;44557;51.862;19.378;2023-03-01T09:41:44;100389.45;;;12.21;37.18
58785;BME280;44557;51.862;19.378;2023-03-01T09:43:49;100390.89;;;12.54;36.24
58785;BME280;44557;51.862;19.378;2023-03-01T09:45:55;100383.08;;;12.31;35.61
58785;BME280;44557;51.862;19.378;2023-03-01T09:48:00;100379.14;;;11.98;35.81
58785;BME280;44557;51.862;19.378;2023-03-01T09:50:17;100376.79;;;12.14;35.26
58785;BME280;44557;51.862;19.378;2023-03-01T09:52:25;100373.42;;;12.25;35.07
58785;BME280;44557;51.862;19.378;2023-03-01T09:54:30;100373.21;;;12.40;34.54
58785;BME280;44557;51.862;19.378;2023-03-01T09:56:43;100371.21;;;12.15;34.90
58785;BME280;44557;51.862;19.378;2023-03-01T10:03:36;100369.41;;;12.46;34.90
58785;BME280;44557;51.862;19.378;2023-03-01T10:06:09;100366.93;;;12.47;34.64
58785;BME280;44557;51.862;19.378;2023-03-01T10:10:32;100362.93;;;12.76;34.59
58785;BME280;44557;51.862;19.378;2023-03-01T10:12:37;100364.55;;;12.85;34.75
58785;BME280;44557;51.862;19.378;2023-03-01T10:14:51;100361.91;;;13.24;33.54
58785;BME280;44557;51.862;19.378;2023-03-01T10:16:57;100362.53;;;12.35;34.45
58785;BME280;44557;51.862;19.378;2023-03-01T10:19:03;100361.45;;;12.00;35.53
58785;BME280;44557;51.862;19.378;2023-03-01T10:21:17;100362.88;;;12.49;35.22
58785;BME280;44557;51.862;19.378;2023-03-01T10:23:22;100363.23;;;12.76;34.80
58785;BME280;44557;51.862;19.378;2023-03-01T10:25:32;100359.62;;;13.13;34.31
58785;BME280;44557;51.862;19.378;2023-03-01T10:27:47;100359.43;;;13.15;33.34
58785;BME280;44557;51.862;19.378;2023-03-01T10:30:10;100357.05;;;13.75;32.91
58785;BME280;44557;51.862;19.378;2023-03-01T10:32:14;100348.93;;;13.82;32.45
58785;BME280;44557;51.862;19.378;2023-03-01T10:34:30;100346.61;;;14.03;32.04
58785;BME280;44557;51.862;19.378;2023-03-01T10:36:32;100343.94;;;13.97;31.45
58785;BME280;44557;51.862;19.378;2023-03-01T10:38:52;100346.85;;;14.56;30.12
58785;BME280;44557;51.862;19.378;2023-03-01T10:41:00;100342.39;;;14.82;29.54
58785;BME280;44557;51.862;19.378;2023-03-01T10:43:11;100342.56;;;14.79;29.85
58785;BME280;44557;51.862;19.378;2023-03-01T10:45:35;100344.16;;;14.69;29.88
58785;BME280;44557;51.862;19.378;2023-03-01T10:47:37;100338.34;;;15.46;29.81
58785;BME280;44557;51.862;19.378;2023-03-01T10:49:38;100335.39;;;14.73;28.83